Time;durP1;ratioP1;P1;durP2;ratioP2;P2;SDS_P1;SDS_P2;PMS_P1;PMS_P2;Temp;Humidity;BMP_temperature;BMP_pressure;BME280_temperature;BME280_humidity;BME280_pressure;Samples;Min_cycle;Max_cycle;Signal;HPM_P1;HPM_P2
2021/11/01 00:00:23;;;;;;;19.95;3.40;;;;;;;7.86;100.00;99748.97;4996457;28;20330;-87
2021/11/01 00:02:49;;;;;;;31.42;3.88;;;;;;;7.86;100.00;99754.25;4995790;28;20390;-86
2021/11/01 00:05:15;;;;;;;26.65;3.72;;;;;;;7.92;100.00;99748.38;4996060;28;20092;-83
2021/11/01 00:07:41;;;;;;;27.42;4.18;;;;;;;8.03;100.00;99750.00;4978337;28;20437;-80
2021/11/01 00:10:07;;;;;;;23.95;3.38;;;;;;;8.18;100.00;99765.34;4996257;28;20062;-83
2021/11/01 00:12:34;;;;;;;20.60;3.45;;;;;;;8.24;100.00;99747.06;4995937;28;20121;-83
2021/11/01 00:15:00;;;;;;;19.98;3.92;;;;;;;8.29;100.00;99758.03;4995627;28;20037;-83
2021/11/01 00:17:27;;;;;;;20.70;3.33;;;;;;;8.35;98.97;99750.47;4996366;28;20081;-84
2021/11/01 00:19:53;;;;;;;17.17;3.15;;;;;;;8.35;98.70;99753.13;4994214;28;20035;-82
2021/11/01 00:22:19;;;;;;;22.23;3.63;;;;;;;8.33;98.63;99749.78;4995928;28;20034;-84
2021/11/01 00:24:45;;;;;;;24.58;3.15;;;;;;;8.28;98.68;99751.09;4995551;28;20068;-83
2021/11/01 00:27:10;;;;;;;24.30;3.53;;;;;;;8.20;98.64;99748.34;4995961;28;20034;-81
2021/11/01 00:29:36;;;;;;;25.75;4.28;;;;;;;8.12;98.85;99749.09;4995866;28;20030;-82
2021/11/01 00:32:01;;;;;;;24.75;3.50;;;;;;;8.12;98.68;99738.50;4995177;28;20494;-85
2021/11/01 00:34:27;;;;;;;25.17;3.40;;;;;;;8.05;99.56;99741.91;4995597;28;20510;-79
2021/11/01 00:36:53;;;;;;;17.67;2.92;;;;;;;7.99;99.42;99738.03;4995078;28;20371;-80
2021/11/01 00:39:19;;;;;;;15.32;2.85;;;;;;;8.00;98.56;99734.41;4995886;28;20057;-81
2021/11/01 00:41:45;;;;;;;15.07;3.08;;;;;;;8.01;97.40;99744.00;4995175;28;20038;-83
2021/11/01 00:44:10;;;;;;;12.63;2.88;;;;;;;7.98;98.20;99739.00;4995721;28;20061;-81
2021/11/01 00:46:36;;;;;;;14.55;3.17;;;;;;;7.98;97.21;99735.53;4995664;28;20034;-82
2021/11/01 00:49:03;;;;;;;17.65;3.45;;;;;;;7.90;98.39;99731.78;4994897;28;20034;-82
2021/11/01 00:51:28;;;;;;;19.92;2.70;;;;;;;7.84;98.16;99740.34;4995280;28;20479;-84
2021/11/01 00:53:53;;;;;;;14.23;3.10;;;;;;;7.80;98.15;99728.38;4995002;28;20038;-83
2021/11/01 00:56:19;;;;;;;17.95;2.95;;;;;;;7.82;98.24;99730.88;4977725;28;20030;-84
2021/11/01 00:58:45;;;;;;;15.25;3.67;;;;;;;7.76;98.16;99729.63;4993773;28;20062;-84
2021/11/01 01:01:14;;;;;;;18.02;3.25;;;;;;;7.67;98.28;99720.75;4994629;28;20041;-82
2021/11/01 01:03:40;;;;;;;16.55;2.88;;;;;;;7.72;98.27;99720.34;4994988;28;20028;-80
2021/11/01 01:06:05;;;;;;;11.63;2.75;;;;;;;7.74;98.91;99721.03;4995209;28;20034;-80
2021/11/01 01:08:31;;;;;;;15.38;2.85;;;;;;;7.81;97.71;99715.94;4995248;28;20034;-84
2021/11/01 01:10:56;;;;;;;21.10;2.97;;;;;;;7.83;97.36;99712.19;4994630;28;20404;-77
2021/11/01 01:13:27;;;;;;;17.73;2.70;;;;;;;7.84;96.43;99728.94;4993934;28;20467;-83
2021/11/01 01:16:06;;;;;;;14.35;3.38;;;;;;;7.80;96.39;99709.84;4963181;28;20035;-83
2021/11/01 01:18:37;;;;;;;16.77;2.97;;;;;;;7.74;96.41;99724.50;4995836;28;20027;-85
2021/11/01 01:22:11;;;;;;;13.85;2.17;;;;;;;7.71;96.91;99708.09;4994681;28;20026;-81
2021/11/01 01:23:49;;;;;;;15.65;2.65;;;;;;;7.68;97.05;99703.09;4994555;28;20483;-82
2021/11/01 01:26:15;;;;;;;15.70;2.88;;;;;;;7.63;97.10;99692.94;4994251;28;20044;-79
2021/11/01 01:28:44;;;;;;;21.60;2.80;;;;;;;7.65;97.11;99698.09;4994924;28;20121;-82
2021/11/01 01:31:10;;;;;;;14.25;2.70;;;;;;;7.66;96.56;99695.28;4994310;28;20034;-80
2021/11/01 01:33:36;;;;;;;19.42;2.53;;;;;;;7.70;95.64;99688.72;5009499;23;20063;-74
2021/11/01 01:36:02;;;;;;;13.63;3.53;;;;;;;7.73;95.76;99688.44;4976871;28;20038;-77
2021/11/01 01:38:27;;;;;;;17.50;3.03;;;;;;;7.75;95.51;99683.81;4993212;28;20053;-74
2021/11/01 01:40:54;;;;;;;16.42;2.90;;;;;;;7.70;96.23;99686.06;4993882;28;20037;-75
2021/11/01 01:43:20;;;;;;;16.17;2.63;;;;;;;7.66;96.41;99675.91;4994179;28;20470;-75
2021/11/01 01:45:46;;;;;;;22.52;2.60;;;;;;;7.58;96.69;99674.00;4994191;28;20038;-74
2021/11/01 01:48:13;;;;;;;14.55;2.70;;;;;;;7.50;97.25;99682.69;4993839;28;20030;-74
2021/11/01 01:50:38;;;;;;;15.82;2.50;;;;;;;7.46;97.69;99664.59;4994022;28;20049;-74
2021/11/01 01:53:04;;;;;;;19.67;3.22;;;;;;;7.46;97.98;99675.19;4992459;28;20030;-74
2021/11/01 01:55:30;;;;;;;20.55;3.08;;;;;;;7.43;97.64;99670.19;4994094;28;20474;-77
2021/11/01 01:57:56;;;;;;;15.18;3.03;;;;;;;7.38;97.92;99657.41;4993446;28;20160;-76
2021/11/01 02:03:06;;;;;;;15.75;2.38;;;;;;;7.39;98.01;99656.44;4993726;28;20139;-76
2021/11/01 02:06:00;;;;;;;19.05;2.67;;;;;;;7.43;96.90;99657.78;4994043;28;20074;-74
2021/11/01 02:08:26;;;;;;;17.48;3.13;;;;;;;7.47;96.39;99666.28;4993839;28;20493;-75
2021/11/01 02:11:02;;;;;;;11.25;2.05;;;;;;;7.47;96.30;99663.63;4992782;28;20034;-75
2021/11/01 02:13:30;;;;;;;23.02;3.65;;;;;;;7.51;96.21;99671.13;4993901;28;20485;-75
2021/11/01 02:15:59;;;;;;;12.95;2.60;;;;;;;7.47;96.55;99671.56;4993226;28;20038;-77
2021/11/01 02:18:27;;;;;;;22.27;3.35;;;;;;;7.43;97.20;99676.31;4993656;28;20026;-75
2021/11/01 02:20:59;;;;;;;18.90;2.60;;;;;;;7.37;97.12;99671.63;4993327;28;20429;-75
2021/11/01 02:23:40;;;;;;;7.32;2.05;;;;;;;7.37;97.47;99679.56;4992595;28;20041;-75
2021/11/01 02:26:08;;;;;;;17.90;2.63;;;;;;;7.35;97.19;99679.69;4992022;28;20120;-75
2021/11/01 02:28:38;;;;;;;13.55;3.40;;;;;;;7.35;96.74;99679.69;4992425;28;20125;-75
2021/11/01 02:31:06;;;;;;;15.85;2.78;;;;;;;7.37;97.52;99680.38;4993147;28;20048;-75
2021/11/01 02:33:32;;;;;;;17.30;2.95;;;;;;;7.38;97.50;99683.88;4993196;28;20077;-75
2021/11/01 02:35:59;;;;;;;12.20;2.13;;;;;;;7.41;97.19;99681.75;4992930;28;20426;-74
2021/11/01 02:38:28;;;;;;;14.75;2.78;;;;;;;7.46;96.38;99667.25;4993244;28;20154;-75
2021/11/01 02:40:54;;;;;;;15.38;2.00;;;;;;;7.48;95.53;99684.66;4993275;28;20034;-74
2021/11/01 02:43:19;;;;;;;12.20;1.88;;;;;;;7.51;96.36;99672.91;4992901;28;20035;-75
2021/11/01 02:45:45;;;;;;;15.05;1.80;;;;;;;7.51;95.72;99694.09;4993252;28;20525;-75
2021/11/01 02:48:12;;;;;;;9.73;2.20;;;;;;;7.56;95.13;99689.22;4991484;28;20038;-75
2021/11/01 02:50:37;;;;;;;14.80;2.53;;;;;;;7.59;95.52;99680.97;4993598;28;20158;-76
2021/11/01 02:53:03;;;;;;;7.38;1.95;;;;;;;7.58;95.13;99682.81;4991645;28;20034;-75
2021/11/01 02:55:29;;;;;;;8.13;1.65;;;;;;;7.64;94.95;99681.34;4993615;28;20045;-75
2021/11/01 02:57:54;;;;;;;13.10;2.10;;;;;;;7.63;95.13;99689.44;4993140;28;20514;-74
2021/11/01 03:00:25;;;;;;;12.82;2.03;;;;;;;7.61;94.32;99702.00;4991202;28;20093;-75
2021/11/01 03:02:51;;;;;;;11.13;1.90;;;;;;;7.65;93.65;99693.63;4993127;28;20096;-74
2021/11/01 03:05:20;;;;;;;12.63;2.05;;;;;;;7.63;94.34;99690.28;4992835;28;20052;-75
2021/11/01 03:07:47;;;;;;;10.15;1.90;;;;;;;7.61;93.88;99694.06;4992978;28;20041;-75
2021/11/01 03:10:12;;;;;;;6.95;1.73;;;;;;;7.56;94.60;99686.56;4992631;28;20034;-75
2021/11/01 03:12:40;;;;;;;8.15;1.80;;;;;;;7.48;94.84;99689.97;4992908;28;20026;-75
2021/11/01 03:15:09;;;;;;;15.40;2.83;;;;;;;7.39;94.82;99696.97;4992420;28;20040;-75
2021/11/01 03:17:38;;;;;;;9.82;2.03;;;;;;;7.39;95.42;99696.13;4993195;28;20066;-75
2021/11/01 03:20:12;;;;;;;14.35;2.45;;;;;;;7.38;95.75;99692.63;4992590;28;20038;-76
2021/11/01 03:22:45;;;;;;;11.90;2.40;;;;;;;7.34;96.13;99691.25;4993015;28;20042;-75
2021/11/01 03:25:23;;;;;;;16.27;2.25;;;;;;;7.35;96.41;99678.88;4991254;28;20022;-75
2021/11/01 03:27:52;;;;;;;11.05;1.80;;;;;;;7.38;96.26;99666.16;4993083;28;20497;-75
2021/11/01 03:30:19;;;;;;;9.70;1.80;;;;;;;7.45;95.27;99676.16;4992413;28;20085;-75
2021/11/01 03:32:46;;;;;;;14.27;1.83;;;;;;;7.43;95.45;99678.97;4993050;28;20043;-75
2021/11/01 03:35:12;;;;;;;13.88;2.47;;;;;;;7.49;94.61;99677.53;4992464;28;20054;-74
2021/11/01 03:37:41;;;;;;;11.85;2.13;;;;;;;7.49;94.58;99675.72;4992889;28;20030;-74
2021/11/01 03:40:07;;;;;;;14.63;2.70;;;;;;;7.59;94.34;99667.75;4992068;28;20026;-76
2021/11/01 03:42:32;;;;;;;10.32;2.33;;;;;;;7.62;95.23;99672.72;4992894;28;20070;-75
2021/11/01 03:45:03;;;;;;;8.88;2.88;;;;;;;7.64;95.45;99667.28;4992880;28;20489;-74
2021/11/01 03:47:31;;;;;;;13.63;2.47;;;;;;;7.67;94.71;99674.94;4992785;28;20081;-74
2021/11/01 03:50:01;;;;;;;13.40;2.15;;;;;;;7.69;94.96;99673.00;4996463;28;20030;-74
2021/11/01 03:52:32;;;;;;;15.38;2.42;;;;;;;7.67;94.97;99669.63;4995756;28;20047;-74
2021/11/01 03:54:57;;;;;;;12.27;2.45;;;;;;;7.59;95.21;99673.03;4995097;28;20027;-74
2021/11/01 03:57:23;;;;;;;13.85;2.08;;;;;;;7.57;95.02;99667.06;4995947;28;20381;-74
2021/11/01 03:59:49;;;;;;;19.27;3.25;;;;;;;7.57;95.21;99670.53;4995026;28;20038;-74
2021/11/01 04:02:17;;;;;;;10.95;2.45;;;;;;;7.60;94.41;99666.75;4995594;28;20398;-75
2021/11/01 04:04:51;;;;;;;15.65;2.58;;;;;;;7.63;94.99;99665.63;4996155;28;20470;-75
2021/11/01 04:07:17;;;;;;;11.80;2.63;;;;;;;7.62;95.35;99667.44;4995476;28;20474;-75
2021/11/01 04:09:43;;;;;;;11.50;2.60;;;;;;;7.63;95.73;99668.25;4995973;28;20058;-75
2021/11/01 04:12:10;;;;;;;14.13;2.75;;;;;;;7.65;94.89;99664.50;4995709;28;20030;-75
2021/11/01 04:14:43;;;;;;;10.43;2.50;;;;;;;7.67;95.58;99673.09;4978814;28;20038;-75
2021/11/01 04:17:12;;;;;;;14.38;2.80;;;;;;;7.67;95.49;99657.22;4995785;28;20037;-79
2021/11/01 04:19:45;;;;;;;22.90;2.83;;;;;;;7.68;95.30;99656.25;4995657;28;20030;-75
2021/11/01 04:22:10;;;;;;;10.90;2.75;;;;;;;7.74;95.08;99666.25;4994198;28;20386;-76
2021/11/01 04:24:36;;;;;;;14.23;2.53;;;;;;;7.72;95.28;99660.28;4995838;28;20030;-75
2021/11/01 04:27:01;;;;;;;15.00;2.47;;;;;;;7.68;95.11;99656.25;4995813;28;20428;-74
2021/11/01 04:29:30;;;;;;;13.18;2.10;;;;;;;7.69;94.31;99657.09;4994215;28;20465;-75
2021/11/01 04:32:04;;;;;;;23.60;3.13;;;;;;;7.62;94.80;99667.44;4995572;28;20037;-74
2021/11/01 04:34:36;;;;;;;12.25;2.65;;;;;;;7.57;94.74;99673.19;4995281;28;20873;-75
2021/11/01 04:37:02;;;;;;;17.13;2.72;;;;;;;7.49;95.61;99666.97;4995734;28;20031;-75
2021/11/01 04:52:58;;;;;;;11.77;2.58;;;;;;;7.68;95.53;99679.25;4995249;28;20049;-74
2021/11/01 04:53:04;;;;;;;14.30;2.38;;;;;;;7.74;94.86;99683.94;4995094;28;20046;-74
2021/11/01 04:55:30;;;;;;;9.55;2.72;;;;;;;7.79;93.77;99694.91;4994969;28;20081;-74
2021/11/01 04:57:57;;;;;;;13.68;2.22;;;;;;;7.86;94.20;99684.56;4995238;28;20509;-74
2021/11/01 05:00:24;;;;;;;11.95;2.15;;;;;;;7.83;93.71;99676.94;4992163;28;20042;-73
2021/11/01 05:02:58;;;;;;;16.58;2.60;;;;;;;7.79;93.63;99668.44;4995114;28;20030;-74
2021/11/01 05:05:23;;;;;;;14.10;2.70;;;;;;;7.70;93.58;99666.69;4994455;28;20483;-74
2021/11/01 05:07:49;;;;;;;13.45;2.30;;;;;;;7.57;93.88;99678.47;4994883;28;20069;-75
2021/11/01 05:10:28;;;;;;;11.75;2.30;;;;;;;7.50;94.38;99674.75;4995121;28;20041;-75
2021/11/01 05:12:55;;;;;;;13.32;2.45;;;;;;;7.41;95.21;99699.44;4993954;28;20042;-74
2021/11/01 05:17:55;;;;;;;11.40;2.30;;;;;;;7.35;94.71;99689.47;4994794;28;20466;-74
2021/11/01 05:23:02;;;;;;;15.77;2.83;;;;;;;7.31;95.34;99690.72;4994766;28;20384;-74
2021/11/01 05:30:50;;;;;;;10.43;2.40;;;;;;;7.37;96.41;99690.13;4994104;28;20042;-73
2021/11/01 05:35:40;;;;;;;12.93;2.45;;;;;;;7.47;94.22;99700.69;4992679;28;20054;-74
2021/11/01 05:38:07;;;;;;;12.90;2.70;;;;;;;7.47;94.69;99696.22;4994474;28;20532;-74
2021/11/01 05:40:34;;;;;;;11.27;2.45;;;;;;;7.53;93.21;99702.75;4993955;28;20041;-75
2021/11/01 05:43:00;;;;;;;10.55;2.45;;;;;;;7.50;94.28;99708.34;4994209;28;20488;-75
2021/11/01 05:45:25;;;;;;;12.57;2.40;;;;;;;7.48;94.21;99705.84;4993622;28;20120;-74
2021/11/01 05:48:24;;;;;;;14.77;3.13;;;;;;;7.49;93.86;99719.88;4994144;28;20031;-74
2021/11/01 05:50:42;;;;;;;15.73;3.03;;;;;;;7.54;93.45;99710.53;4990626;28;20050;-74
2021/11/01 05:53:11;;;;;;;13.38;2.47;;;;;;;7.50;93.68;99706.50;4994245;28;20052;-74
2021/11/01 05:58:27;;;;;;;12.10;2.63;;;;;;;7.33;94.35;99708.13;4994172;28;20038;-74
2021/11/01 06:03:25;;;;;;;14.30;2.45;;;;;;;7.26;94.28;99701.75;4993841;28;20038;-74
2021/11/01 06:08:41;;;;;;;17.38;3.00;;;;;;;7.18;94.80;99728.94;4993381;28;20042;-74
2021/11/01 06:13:53;;;;;;;14.25;2.63;;;;;;;7.10;95.04;99725.34;4993474;28;20042;-74
2021/11/01 06:16:19;;;;;;;12.05;2.42;;;;;;;7.05;95.98;99734.53;4992372;28;20438;-75
2021/11/01 06:18:45;;;;;;;11.07;2.38;;;;;;;7.00;95.52;99720.06;4993132;28;20092;-75
2021/11/01 06:21:17;;;;;;;16.05;2.40;;;;;;;7.01;94.85;99735.78;4992314;28;20035;-75
2021/11/01 06:23:50;;;;;;;12.25;2.95;;;;;;;6.99;95.63;99731.63;4993227;28;20038;-74
2021/11/01 06:26:19;;;;;;;10.05;2.08;;;;;;;6.97;95.75;99734.44;4993542;28;20038;-74
2021/11/01 06:28:47;;;;;;;19.38;2.75;;;;;;;6.95;95.70;99738.19;4992991;28;20041;-74
2021/11/01 06:31:21;;;;;;;11.93;2.40;;;;;;;6.98;95.66;99725.50;4993349;28;20126;-75
2021/11/01 06:34:17;;;;;;;16.05;2.30;;;;;;;7.04;95.24;99745.25;4992871;28;20091;-75
2021/11/01 06:39:44;;;;;;;16.00;2.75;;;;;;;7.12;95.54;99747.19;4992902;28;20050;-74
2021/11/01 06:44:55;;;;;;;12.07;2.13;;;;;;;7.27;95.56;99755.50;4992973;28;20042;-75
2021/11/01 06:50:28;;;;;;;11.38;2.00;;;;;;;7.18;97.40;99749.25;4993564;28;20136;-76
2021/11/01 07:14:41;;;;;;;12.63;1.95;;;;;;;6.79;99.86;99750.19;4991836;28;20084;-78
2021/11/01 07:17:12;;;;;;;16.35;2.17;;;;;;;6.87;99.78;99747.66;4991805;28;20121;-76
2021/11/01 07:23:10;;;;;;;10.27;2.17;;;;;;;6.97;98.96;99746.78;4956793;28;20051;-77
2021/11/01 08:25:25;;;;;;;15.65;2.08;;;;;;;8.00;91.85;99802.41;4995703;28;20141;-75
2021/11/01 08:28:06;;;;;;;6.93;1.77;;;;;;;8.06;91.37;99812.41;4995065;28;20078;-77
2021/11/01 08:41:44;;;;;;;9.68;1.80;;;;;;;8.43;91.81;99796.44;4957547;28;20090;-80
2021/11/01 08:49:26;;;;;;;14.55;2.20;;;;;;;8.54;89.23;99811.31;4973206;28;20186;-76
2021/11/01 09:01:09;;;;;;;8.88;1.95;;;;;;;8.60;87.48;99807.25;4972859;28;20097;-73
2021/11/01 09:18:42;;;;;;;10.25;2.53;;;;;;;9.43;82.49;99809.50;4972988;28;20088;-76
2021/11/01 09:24:50;;;;;;;7.63;1.83;;;;;;;9.66;81.01;99809.00;4956618;28;20081;-75
2021/11/01 09:27:21;;;;;;;5.38;1.40;;;;;;;9.87;80.07;99812.06;4972523;28;20058;-76
2021/11/01 09:35:45;;;;;;;6.90;1.70;;;;;;;10.21;78.67;99815.66;4972110;28;20058;-75
2021/11/01 09:38:20;;;;;;;8.00;1.60;;;;;;;10.37;75.63;99813.09;4972023;28;20057;-77
2021/11/01 09:43:20;;;;;;;9.63;1.30;;;;;;;10.59;76.16;99816.94;4972248;28;20039;-80
2021/11/01 09:45:46;;;;;;;5.15;1.63;;;;;;;11.23;72.64;99824.28;4971246;28;20094;-78
2021/11/01 09:48:12;;;;;;;7.80;1.30;;;;;;;12.49;68.33;99822.69;4972274;28;20039;-79
2021/11/01 09:50:38;;;;;;;2.88;1.02;;;;;;;13.61;63.86;99820.47;4972014;28;20093;-79
2021/11/01 09:53:23;;;;;;;6.70;1.30;;;;;;;14.31;61.15;99805.72;4970310;28;20035;-78
2021/11/01 09:55:50;;;;;;;4.30;1.27;;;;;;;14.73;59.08;99840.78;4956601;28;20038;-87
2021/11/01 10:01:05;;;;;;;5.68;1.42;;;;;;;15.99;53.95;99816.00;4990102;28;20505;-75
2021/11/01 10:03:36;;;;;;;5.95;1.50;;;;;;;15.29;56.00;99816.75;4976256;28;20041;-77
2021/11/01 10:06:03;;;;;;;3.72;1.15;;;;;;;15.19;56.42;99818.13;4993345;28;20062;-77
2021/11/01 10:08:30;;;;;;;4.25;1.48;;;;;;;13.97;59.22;99822.41;4992643;28;20038;-76
2021/11/01 10:10:57;;;;;;;5.18;1.20;;;;;;;13.61;61.58;99825.81;4993509;28;20121;-76
2021/11/01 10:13:25;;;;;;;6.30;1.60;;;;;;;13.09;64.58;99832.78;4993713;28;20113;-75
2021/11/01 10:18:47;;;;;;;9.57;1.95;;;;;;;12.08;65.96;99822.09;4994016;28;20053;-77
2021/11/01 10:21:18;;;;;;;6.75;1.42;;;;;;;11.49;70.40;99830.41;4991872;28;20038;-78
2021/11/01 10:23:54;;;;;;;7.00;1.70;;;;;;;11.12;70.61;99829.94;4992490;28;20026;-75
2021/11/01 10:26:22;;;;;;;5.60;1.45;;;;;;;11.07;69.38;99826.97;4992373;28;20030;-75
2021/11/01 10:28:50;;;;;;;8.73;1.63;;;;;;;10.94;71.23;99838.09;4993416;28;20123;-76
2021/11/01 10:31:21;;;;;;;8.30;1.83;;;;;;;10.61;73.28;99827.44;4991858;28;20034;-75
2021/11/01 10:33:47;;;;;;;;;;;;;;;10.47;75.11;99847.53;4993874;28;20037;-75
2021/11/01 10:36:25;;;;;;;4.97;1.48;;;;;;;10.40;75.96;99841.19;4993088;28;19917;-76
2021/11/01 10:39:02;;;;;;;4.47;1.27;;;;;;;10.41;73.41;99833.03;4992042;28;20033;-75
2021/11/01 10:41:41;;;;;;;7.38;1.88;;;;;;;10.36;73.89;99842.50;4993162;28;20038;-76
2021/11/01 10:44:35;;;;;;;4.65;0.90;;;;;;;10.34;74.65;99849.81;4992992;28;20027;-77
2021/11/01 11:12:30;;;;;;;4.72;1.35;;;;;;;11.10;74.54;99838.09;4978104;28;20061;-77
2021/11/01 11:14:59;;;;;;;4.32;1.25;;;;;;;11.08;73.23;99847.28;4991813;28;20042;-76
2021/11/01 11:25:46;;;;;;;3.45;1.30;;;;;;;10.96;74.33;99832.63;4992819;28;20043;-78
2021/11/01 11:37:40;;;;;;;5.60;1.38;;;;;;;11.20;71.38;99845.13;4956785;28;20511;-77
2021/11/01 11:50:32;;;;;;;6.32;1.55;;;;;;;11.78;68.80;99846.66;4992796;28;20039;-76
2021/11/01 11:53:19;;;;;;;5.32;1.30;;;;;;;11.67;68.77;99847.03;4975470;28;20034;-78
2021/11/01 11:56:00;;;;;;;5.97;1.45;;;;;;;11.60;70.09;99848.72;4992857;28;20030;-77
2021/11/01 11:58:33;;;;;;;5.07;1.27;;;;;;;11.54;69.94;99847.56;4990874;28;20038;-78
2021/11/01 12:00:59;;;;;;;5.18;1.20;;;;;;;11.43;68.51;99854.06;4991651;28;20118;-77
2021/11/01 12:03:24;;;;;;;7.40;1.30;;;;;;;11.50;69.10;99850.75;4992181;28;20117;-77
2021/11/01 12:06:02;;;;;;;9.88;1.77;;;;;;;11.49;70.38;99854.41;4975397;28;20034;-77
2021/11/01 12:08:38;;;;;;;6.25;1.90;;;;;;;11.51;69.63;99849.72;4991574;28;20490;-78
2021/11/01 12:19:08;;;;;;;7.35;1.27;;;;;;;11.73;68.33;99869.50;4996144;28;20042;-77
2021/11/01 12:21:38;;;;;;;7.15;1.35;;;;;;;11.70;69.45;99857.34;4995679;28;20137;-77
2021/11/01 12:24:09;;;;;;;3.72;1.00;;;;;;;11.79;69.22;99847.47;4994761;28;20026;-77
2021/11/01 12:26:36;;;;;;;4.68;1.30;;;;;;;11.80;67.56;99846.50;4995823;28;20046;-80
2021/11/01 12:29:07;;;;;;;5.60;1.20;;;;;;;11.94;66.76;99848.50;4995689;28;20022;-81
2021/11/01 12:31:32;;;;;;;5.25;1.13;;;;;;;12.09;67.65;99832.59;4995877;28;20479;-79
2021/11/01 12:34:06;;;;;;;4.28;1.00;;;;;;;12.24;64.71;99851.38;4999611;28;20125;-79
2021/11/01 12:39:09;;;;;;;3.80;0.90;;;;;;;12.57;63.91;99853.84;4994399;28;20050;-76
2021/11/01 12:42:41;;;;;;;4.82;1.00;;;;;;;12.73;62.83;99852.09;4979562;28;20041;-77
2021/11/01 12:57:40;;;;;;;9.30;1.40;;;;;;;12.27;64.09;99851.00;4993723;28;20073;-76
2021/11/01 13:00:07;;;;;;;4.03;1.27;;;;;;;11.94;67.58;99847.63;4994831;28;20030;-77
2021/11/01 13:02:38;;;;;;;4.80;1.40;;;;;;;11.59;68.41;99842.53;4992872;28;20105;-77
2021/11/01 13:05:09;;;;;;;7.90;1.52;;;;;;;11.50;68.35;99840.09;4994575;28;20466;-77
2021/11/01 13:18:32;;;;;;;8.18;1.95;;;;;;;11.12;70.98;99845.91;4971971;28;20050;-79
2021/11/01 13:21:06;;;;;;;4.88;1.30;;;;;;;11.14;71.61;99856.41;4971692;28;20039;-78
2021/11/01 13:23:35;;;;;;;6.82;1.70;;;;;;;11.18;70.89;99839.94;4972124;28;20062;-80
2021/11/01 13:38:53;;;;;;;6.53;1.67;;;;;;;12.01;67.43;99842.47;4994327;28;20042;-77
2021/11/01 13:41:28;;;;;;;4.78;1.60;;;;;;;12.07;68.59;99844.44;4993926;28;20030;-78
2021/11/01 13:44:14;;;;;;;5.07;1.50;;;;;;;12.08;69.33;99841.59;4994704;28;20133;-77
2021/11/01 13:46:45;;;;;;;5.82;1.45;;;;;;;11.85;68.94;99841.47;4994123;28;20035;-78
2021/11/01 13:49:12;;;;;;;8.98;1.42;;;;;;;11.82;67.46;99832.00;4992822;28;20505;-76
2021/11/01 13:51:37;;;;;;;5.05;1.40;;;;;;;11.64;68.53;99834.88;4992705;28;20045;-78
2021/11/01 14:15:35;;;;;;;8.05;1.60;;;;;;;10.97;68.76;99826.31;4993824;28;20034;-76
2021/11/01 15:01:21;;;;;;;2.95;0.77;;;;;;;9.69;70.95;99853.84;4973169;28;20470;-75
2021/11/01 15:32:49;;;;;;;3.58;0.60;;;;;;;9.37;75.04;99860.59;4990754;28;20077;-76
2021/11/01 15:37:31;;;;;;;5.45;0.98;;;;;;;9.46;75.83;99864.13;5069383;28;20382;-76
2021/11/01 16:18:07;;;;;;;4.90;0.82;;;;;;;7.89;83.67;99874.97;5068796;28;20435;-76
2021/11/01 16:20:33;;;;;;;4.20;0.98;;;;;;;7.83;83.78;99879.03;5053063;28;20032;-77
2021/11/01 16:23:16;;;;;;;3.53;1.15;;;;;;;7.77;84.49;99880.44;5069019;28;20040;-76
2021/11/01 16:25:41;;;;;;;2.88;0.90;;;;;;;7.72;84.15;99889.81;5052880;28;20175;-75
2021/11/01 16:28:07;;;;;;;5.00;0.90;;;;;;;7.65;84.98;99873.66;5067789;28;20028;-77
2021/11/01 16:30:34;;;;;;;2.45;0.95;;;;;;;7.58;85.29;99881.34;5068465;28;20047;-78
2021/11/01 16:33:02;;;;;;;1.00;0.77;;;;;;;7.56;84.71;99888.56;5068744;28;20032;-76
2021/11/01 16:35:35;;;;;;;3.50;1.00;;;;;;;7.50;85.31;99889.16;5051048;28;20560;-75
2021/11/01 16:38:10;;;;;;;1.63;0.98;;;;;;;7.43;86.02;99898.63;5068523;28;20407;-75
2021/11/01 16:40:39;;;;;;;3.15;0.77;;;;;;;7.37;86.08;99893.91;5068225;28;20036;-76
2021/11/01 16:43:13;;;;;;;0.80;0.80;;;;;;;7.33;86.13;99897.81;5064487;28;20101;-75
2021/11/01 16:45:39;;;;;;;5.15;1.00;;;;;;;7.31;85.44;99903.25;5063945;28;20043;-79
2021/11/01 16:48:07;;;;;;;2.63;1.00;;;;;;;7.29;85.40;99894.63;5052225;28;20033;-78
2021/11/01 16:50:33;;;;;;;4.18;0.98;;;;;;;7.22;86.53;99901.44;5052361;28;20041;-79
2021/11/01 16:52:59;;;;;;;2.10;1.05;;;;;;;7.17;87.09;99906.34;5050584;28;20114;-78
2021/11/01 16:55:28;;;;;;;4.57;1.10;;;;;;;7.10;86.63;99898.09;5051721;28;20068;-79
2021/11/01 16:57:58;;;;;;;5.38;1.10;;;;;;;7.03;87.00;99900.47;5034307;28;20163;-78
2021/11/01 17:00:35;;;;;;;4.20;1.08;;;;;;;6.95;87.68;99897.69;5051927;28;20067;-78
2021/11/01 17:03:15;;;;;;;3.05;1.10;;;;;;;6.97;87.23;99913.41;5050435;28;20029;-77
2021/11/01 17:22:24;;;;;;;5.38;1.30;;;;;;;6.58;90.50;99922.13;5050976;28;20048;-78
2021/11/01 17:30:52;;;;;;;6.60;1.58;;;;;;;6.49;91.94;99921.16;5028742;28;20045;-78
2021/11/01 18:24:36;;;;;;;6.30;1.60;;;;;;;6.44;91.50;99925.16;5051297;28;20520;-78
2021/11/01 18:38:05;;;;;;;6.38;3.45;;;;;;;5.74;98.38;99968.03;5050597;28;20056;-75
2021/11/01 18:53:35;;;;;;;;;;;;;;;6.08;97.37;99982.84;5050492;28;20033;-79
2021/11/01 18:56:03;;;;;;;12.82;3.47;;;;;;;6.04;97.20;99981.44;5049625;28;20019;-80
2021/11/01 18:58:32;;;;;;;6.65;3.25;;;;;;;6.05;97.21;99983.94;5050352;28;20025;-78
2021/11/01 19:00:58;;;;;;;9.45;3.58;;;;;;;6.05;97.04;99991.88;5048381;28;20033;-76
2021/11/01 19:03:27;;;;;;;6.40;3.13;;;;;;;6.08;97.04;99994.25;5048627;28;20044;-76
2021/11/01 19:06:03;;;;;;;5.75;2.78;;;;;;;6.08;96.83;99993.44;5049073;28;20064;-76
2021/11/01 20:06:53;;;;;;;8.38;2.35;;;;;;;5.46;96.69;99985.31;5048785;28;20048;-77
2021/11/01 21:26:58;;;;;;;10.25;2.65;;;;;;;5.68;96.96;99984.38;5052406;28;20103;-77
2021/11/01 21:29:24;;;;;;;5.88;2.90;;;;;;;5.62;96.64;99985.72;5049924;28;20563;-80
2021/11/01 21:31:49;;;;;;;7.50;3.47;;;;;;;5.58;96.98;99981.69;5049988;28;20037;-78
2021/11/01 21:34:17;;;;;;;11.75;3.10;;;;;;;5.56;97.43;99983.59;5051153;28;20449;-77
2021/11/01 21:36:43;;;;;;;10.27;3.17;;;;;;;5.59;97.33;99982.50;5033939;28;20064;-78
2021/11/01 21:39:08;;;;;;;4.43;2.78;;;;;;;5.59;97.45;99979.88;5051133;28;20127;-78
2021/11/01 21:41:34;;;;;;;6.93;2.85;;;;;;;5.63;97.17;99983.94;5033580;28;20155;-78
2021/11/01 21:43:59;;;;;;;6.70;2.92;;;;;;;5.62;96.75;99985.72;5033070;28;20025;-79
2021/11/01 21:46:24;;;;;;;6.35;3.15;;;;;;;5.59;96.59;99993.91;5032963;28;20531;-77
2021/11/01 21:48:51;;;;;;;7.85;3.10;;;;;;;5.54;96.98;99987.31;5050911;28;20056;-75
2021/11/01 21:51:17;;;;;;;12.63;2.88;;;;;;;5.49;96.96;99990.34;5051055;28;20051;-77
2021/11/01 21:53:48;;;;;;;16.83;3.03;;;;;;;5.45;97.29;99983.66;5049915;28;20215;-77
2021/11/01 21:56:15;;;;;;;7.70;3.80;;;;;;;5.41;97.15;99979.59;5049016;28;20029;-78
2021/11/01 22:25:08;;;;;;;9.05;5.40;;;;;;;5.10;99.85;99990.84;5050440;28;20052;-76
2021/11/01 22:38:42;;;;;;;9.38;3.92;;;;;;;4.99;99.56;99987.44;5050332;28;20116;-77
2021/11/01 22:57:20;;;;;;;14.40;5.63;;;;;;;4.69;100.00;99981.00;5043352;28;20385;-76
2021/11/01 22:59:45;;;;;;;10.98;5.65;;;;;;;4.69;100.00;99986.28;5049008;28;20033;-77
2021/11/01 23:02:11;;;;;;;8.85;4.88;;;;;;;4.65;100.00;99983.03;5049541;28;20480;-77
2021/11/01 23:05:10;;;;;;;10.73;5.47;;;;;;;4.64;100.00;99983.16;5044021;28;20037;-76
2021/11/01 23:31:58;;;;;;;15.13;8.98;;;;;;;4.58;100.00;99955.50;5052607;28;20047;-77
2021/11/01 23:34:23;;;;;;;11.05;7.57;;;;;;;4.55;100.00;99958.38;5051774;28;20029;-77
2021/11/01 23:36:49;;;;;;;17.27;10.32;;;;;;;4.58;100.00;99951.09;5051153;28;20139;-77
2021/11/01 23:39:15;;;;;;;19.98;11.23;;;;;;;4.65;100.00;99950.59;5017984;28;20469;-77
2021/11/01 23:41:49;;;;;;;21.67;10.63;;;;;;;4.69;100.00;99955.50;5050616;28;20115;-77
2021/11/01 23:44:19;;;;;;;18.35;11.23;;;;;;;4.72;100.00;99951.78;5052450;28;20033;-78
2021/11/01 23:46:44;;;;;;;16.45;10.20;;;;;;;4.81;100.00;99945.75;5052728;28;20115;-77
2021/11/01 23:49:10;;;;;;;18.98;11.23;;;;;;;4.83;100.00;99941.19;5050987;28;20278;-77
2021/11/01 23:51:37;;;;;;;15.40;10.65;;;;;;;4.80;100.00;99949.34;5033886;28;20032;-77
2021/11/01 23:56:34;;;;;;;18.30;10.63;;;;;;;4.75;100.00;99946.25;5052507;28;20045;-76
2021/11/01 23:59:00;;;;;;;22.67;11.70;;;;;;;4.72;100.00;99941.25;5055289;28;20032;-77
